Time;durP1;ratioP1;P1;durP2;ratioP2;P2;SDS_P1;SDS_P2;PMS_P1;PMS_P2;Temp;Humidity;BMP_temperature;BMP_pressure;BME280_temperature;BME280_humidity;BME280_pressure;Samples;Min_cycle;Max_cycle;Signal;HPM_P1;HPM_P2
2023/02/03 00:01:10;;;;;;;;;;;;;;;-1.67;82.58;99036.56;5004304;28;19930;-65
2023/02/03 00:03:35;;;;;;;;;;;;;;;-1.66;82.33;99040.91;5001219;28;19983;-67
2023/02/03 00:06:02;;;;;;;;;;;;;;;-1.67;82.34;99041.94;5003129;28;19933;-65
2023/02/03 00:08:28;;;;;;;;;;;;;;;-1.67;82.41;99033.91;4967760;28;19930;-65
2023/02/03 00:10:54;;;;;;;;;;;;;;;-1.72;82.24;99039.91;4969749;28;20473;-65
2023/02/03 00:13:20;;;;;;;;;;;;;;;-1.75;82.61;99039.50;4985073;28;19929;-65
2023/02/03 00:15:45;;;;;;;;;;;;;;;-1.77;82.89;99036.19;5003102;28;19929;-65
2023/02/03 00:18:12;;;;;;;;;;;;;;;-1.76;82.88;99037.84;4990890;28;19933;-66
2023/02/03 00:20:38;;;;;;;;;;;;;;;-1.77;83.03;99029.00;4983723;28;19984;-65
2023/02/03 00:23:04;;;;;;;;;;;;;;;-1.73;83.08;99038.25;5003943;28;20388;-65
2023/02/03 00:25:30;;;;;;;;;;;;;;;-1.74;83.00;99036.59;5004573;28;19930;-64
2023/02/03 00:27:56;;;;;;;;;;;;;;;-1.69;82.96;99035.97;4997648;28;19980;-65
2023/02/03 00:30:22;;;;;;;;;;;;;;;-1.71;82.88;99036.16;4984892;28;20002;-64
2023/02/03 00:32:48;;;;;;;;;;;;;;;-1.69;82.86;99043.19;4985573;28;20389;-67
2023/02/03 00:35:16;;;;;;;;;;;;;;;-1.66;83.01;99040.91;5003151;28;19933;-65
2023/02/03 00:37:41;;;;;;;;;;;;;;;-1.67;82.92;99041.94;4969091;28;19929;-64
2023/02/03 00:40:08;;;;;;;;;;;;;;;-1.63;82.63;99042.34;4985435;28;19936;-64
2023/02/03 00:42:34;;;;;;;;;;;;;;;-1.68;82.64;99037.63;4967104;28;19930;-64
2023/02/03 00:45:00;;;;;;;;;;;;;;;-1.75;82.94;99042.16;5004194;28;20360;-65
2023/02/03 00:47:29;;;;;;;;;;;;;;;-1.82;83.05;99044.06;4988194;28;20385;-64
2023/02/03 00:49:55;;;;;;;;;;;;;;;-1.86;83.28;99039.13;4971782;28;19937;-65
2023/02/03 00:52:22;;;;;;;;;;;;;;;-1.88;83.46;99032.34;4986555;28;19943;-66
2023/02/03 00:54:48;;;;;;;;;;;;;;;-1.91;83.56;99030.88;5004444;28;19936;-65
2023/02/03 00:57:15;;;;;;;;;;;;;;;-1.84;83.62;99028.19;4985755;28;20460;-64
2023/02/03 00:59:41;;;;;;;;;;;;;;;-1.84;83.70;99036.22;4983962;28;20040;-65
2023/02/03 01:02:08;;;;;;;;;;;;;;;-1.91;84.01;99032.75;4970208;28;19929;-66
2023/02/03 01:04:33;;;;;;;;;;;;;;;-2.00;84.24;99038.34;4986128;28;20031;-66
2023/02/03 01:06:59;;;;;;;;;;;;;;;-2.00;84.32;99034.84;5007342;28;19930;-65
2023/02/03 01:09:26;;;;;;;;;;;;;;;-1.98;84.50;99030.09;4957306;28;19930;-69
2023/02/03 01:11:53;;;;;;;;;;;;;;;-1.97;84.54;99033.59;4971703;28;19929;-66
2023/02/03 01:14:19;;;;;;;;;;;;;;;-1.93;84.65;99038.31;4989726;28;19991;-65
2023/02/03 01:16:44;;;;;;;;;;;;;;;-1.87;84.50;99034.81;4987067;28;19934;-67
2023/02/03 01:19:10;;;;;;;;;;;;;;;-1.87;84.60;99036.66;5007330;28;20040;-65
2023/02/03 01:21:37;;;;;;;;;;;;;;;-1.85;84.57;99026.53;4980585;28;19934;-66
2023/02/03 01:24:03;;;;;;;;;;;;;;;-1.84;84.43;99033.53;4968613;28;19937;-65
2023/02/03 01:26:31;;;;;;;;;;;;;;;-1.83;84.37;99029.03;4970674;28;20321;-66
2023/02/03 01:28:58;;;;;;;;;;;;;;;-1.83;84.44;99018.31;4986359;28;20364;-65
2023/02/03 01:31:25;;;;;;;;;;;;;;;-1.87;84.40;99023.25;4987046;28;19929;-65
2023/02/03 01:33:51;;;;;;;;;;;;;;;-1.90;84.62;99021.81;4966848;28;20461;-65
2023/02/03 01:36:17;;;;;;;;;;;;;;;-1.88;84.66;99011.69;4983991;28;20395;-65
2023/02/03 01:38:43;;;;;;;;;;;;;;;-1.91;84.62;99014.81;4990325;28;19929;-66
2023/02/03 01:41:12;;;;;;;;;;;;;;;-1.86;84.80;99016.84;4990431;28;20400;-65
2023/02/03 01:43:40;;;;;;;;;;;;;;;-1.80;84.39;99015.19;4981631;28;19937;-65
2023/02/03 01:46:16;;;;;;;;;;;;;;;-1.77;84.40;99014.75;5005776;28;19929;-65
2023/02/03 01:48:42;;;;;;;;;;;;;;;-1.74;84.43;99025.88;5006687;28;19929;-65
2023/02/03 01:51:07;;;;;;;;;;;;;;;-1.73;84.00;99021.31;4972727;28;19929;-65
2023/02/03 01:53:33;;;;;;;;;;;;;;;-1.68;84.13;99018.00;4981763;28;19976;-65
2023/02/03 01:56:00;;;;;;;;;;;;;;;-1.69;84.25;99024.41;4968563;28;19930;-65
2023/02/03 01:58:27;;;;;;;;;;;;;;;-1.73;83.97;99022.16;4969827;28;19929;-65
2023/02/03 02:00:56;;;;;;;;;;;;;;;-1.93;84.14;98998.13;4987487;28;20308;-65
2023/02/03 02:03:23;;;;;;;;;;;;;;;-1.77;84.26;99017.44;4987222;28;19935;-66
2023/02/03 02:05:53;;;;;;;;;;;;;;;-1.77;84.40;99012.06;5005862;28;19929;-65
2023/02/03 02:08:23;;;;;;;;;;;;;;;-1.77;84.48;99006.72;5006770;28;20032;-65
2023/02/03 02:10:49;;;;;;;;;;;;;;;-1.75;84.44;99013.53;4990455;28;19965;-65
2023/02/03 02:13:18;;;;;;;;;;;;;;;-1.77;84.22;99015.59;4990595;28;19929;-65
2023/02/03 02:15:49;;;;;;;;;;;;;;;-1.77;84.52;99012.91;5003172;28;20411;-65
2023/02/03 02:18:22;;;;;;;;;;;;;;;-1.75;84.50;99008.16;4988759;28;19929;-65
2023/02/03 02:21:15;;;;;;;;;;;;;;;-1.69;84.29;99014.53;5006311;28;20317;-65
2023/02/03 02:23:58;;;;;;;;;;;;;;;-1.69;84.32;99009.16;4928960;29;20017;-65
2023/02/03 02:26:48;;;;;;;;;;;;;;;-1.69;84.37;99008.34;4932090;29;19953;-65
2023/02/03 02:29:35;;;;;;;;;;;;;;;-1.77;84.38;98990.63;4945970;29;19982;-64
2023/02/03 02:32:10;;;;;;;;;;;;;;;-1.61;84.50;99014.25;4945162;29;19998;-65
2023/02/03 02:34:44;;;;;;;;;;;;;;;-1.57;84.34;99011.97;4930005;29;19961;-64
2023/02/03 02:37:18;;;;;;;;;;;;;;;-1.54;84.12;99000.00;4909589;29;20622;-64
2023/02/03 02:39:46;;;;;;;;;;;;;;;-1.54;84.02;99005.38;4934141;29;20361;-64
2023/02/03 02:42:14;;;;;;;;;;;;;;;-1.57;84.24;99011.97;4929706;29;19931;-65
2023/02/03 02:44:44;;;;;;;;;;;;;;;-1.58;84.34;98999.63;4928959;29;20083;-65
2023/02/03 02:47:15;;;;;;;;;;;;;;;-1.56;84.45;98994.84;4931197;29;20421;-65
2023/02/03 02:49:43;;;;;;;;;;;;;;;-1.58;84.70;98995.06;4946868;29;20704;-64
2023/02/03 02:52:12;;;;;;;;;;;;;;;-1.62;84.77;98991.16;4944648;29;20034;-64
2023/02/03 02:54:43;;;;;;;;;;;;;;;-1.62;84.86;98996.53;4912111;29;19962;-65
2023/02/03 02:57:11;;;;;;;;;;;;;;;-1.56;85.01;98994.84;4912540;29;19930;-64
2023/02/03 02:59:37;;;;;;;;;;;;;;;-1.49;85.02;99001.00;4963775;28;20024;-64
2023/02/03 03:02:03;;;;;;;;;;;;;;;-1.48;84.72;98988.41;4970927;28;20052;-65
2023/02/03 03:04:32;;;;;;;;;;;;;;;-1.46;84.86;98997.06;4986267;28;19971;-64
2023/02/03 03:07:00;;;;;;;;;;;;;;;-1.46;84.80;99000.59;5003301;28;19949;-64
2023/02/03 03:09:28;;;;;;;;;;;;;;;-1.43;84.96;98997.47;4987842;28;19973;-65
2023/02/03 03:11:56;;;;;;;;;;;;;;;-1.37;85.05;99003.00;4996058;28;19930;-65
2023/02/03 03:14:25;;;;;;;;;;;;;;;-1.38;84.95;98998.66;5003318;28;19933;-65
2023/02/03 03:16:52;;;;;;;;;;;;;;;-1.34;84.83;98999.88;4977985;28;19930;-65
2023/02/03 03:19:20;;;;;;;;;;;;;;;-1.29;84.80;99000.06;4984979;28;19930;-65
2023/02/03 03:21:50;;;;;;;;;;;;;;;-1.20;84.69;99000.63;4987134;28;19964;-65
2023/02/03 03:24:18;;;;;;;;;;;;;;;-1.20;84.33;99000.63;5002443;28;20353;-65
2023/02/03 03:26:48;;;;;;;;;;;;;;;-1.19;84.56;99002.25;4987249;28;20028;-65
2023/02/03 03:29:17;;;;;;;;;;;;;;;-1.16;84.32;98997.28;4979803;28;20449;-65
2023/02/03 03:31:43;;;;;;;;;;;;;;;-1.16;84.27;98997.28;4986276;28;19981;-65
2023/02/03 03:34:10;;;;;;;;;;;;;;;-1.15;84.26;98998.94;4987607;28;19961;-65
2023/02/03 03:36:39;;;;;;;;;;;;;;;-1.10;84.34;98997.47;4999616;28;19952;-65
2023/02/03 03:39:10;;;;;;;;;;;;;;;-1.07;84.26;99003.22;5003516;28;19930;-65
2023/02/03 03:41:39;;;;;;;;;;;;;;;-1.06;83.99;98999.50;4991239;28;19929;-65
2023/02/03 03:44:10;;;;;;;;;;;;;;;-1.07;84.20;99000.53;5002695;28;19933;-65
2023/02/03 03:46:39;;;;;;;;;;;;;;;-1.05;84.15;99001.13;4999828;28;19930;-65
2023/02/03 03:49:06;;;;;;;;;;;;;;;-1.03;84.36;98999.06;4992490;28;20236;-64
2023/02/03 03:51:34;;;;;;;;;;;;;;;-1.04;84.12;98993.88;4994617;28;20404;-69
2023/02/03 03:54:02;;;;;;;;;;;;;;;-1.05;84.45;98998.44;4986559;28;19930;-65
2023/02/03 03:56:31;;;;;;;;;;;;;;;-1.04;84.53;98997.41;4985302;28;20547;-67
2023/02/03 03:58:58;;;;;;;;;;;;;;;-1.02;84.67;98998.00;4975047;28;20351;-66
2023/02/03 04:01:24;;;;;;;;;;;;;;;-0.95;84.20;99000.63;4996030;28;20048;-66
2023/02/03 04:03:53;;;;;;;;;;;;;;;-0.98;84.21;98997.56;5005545;28;19930;-65
2023/02/03 04:06:19;;;;;;;;;;;;;;;-0.94;84.06;98999.59;4989022;28;19931;-65
2023/02/03 04:08:45;;;;;;;;;;;;;;;-1.00;84.19;98997.81;5002198;28;19955;-66
2023/02/03 04:11:59;;;;;;;;;;;;;;;-0.98;84.38;99003.78;5003787;28;20031;-65
2023/02/03 04:13:58;;;;;;;;;;;;;;;-0.93;84.36;99006.59;4966862;28;19929;-65
2023/02/03 04:16:23;;;;;;;;;;;;;;;-0.94;84.28;98998.75;4984671;28;19984;-66
2023/02/03 04:18:49;;;;;;;;;;;;;;;-0.98;84.43;99000.25;5005564;28;20210;-65
2023/02/03 04:21:15;;;;;;;;;;;;;;;-1.02;84.43;98998.00;5005548;28;19929;-66
2023/02/03 04:23:41;;;;;;;;;;;;;;;-1.05;84.63;99002.97;4972805;28;19929;-65
2023/02/03 04:26:06;;;;;;;;;;;;;;;-1.03;84.81;98999.06;4988845;28;19929;-65
2023/02/03 04:28:32;;;;;;;;;;;;;;;-0.97;84.96;99005.41;4988775;28;19951;-66
2023/02/03 04:31:00;;;;;;;;;;;;;;;-0.93;84.88;99003.13;5001935;28;19929;-66
2023/02/03 04:33:26;;;;;;;;;;;;;;;-0.91;84.88;99004.53;4996714;28;19993;-65
2023/02/03 04:35:52;;;;;;;;;;;;;;;-0.86;84.93;99003.88;4991207;28;19933;-66
2023/02/03 04:38:17;;;;;;;;;;;;;;;-0.91;84.60;99001.03;5001769;28;20369;-68
2023/02/03 04:40:44;;;;;;;;;;;;;;;-0.95;84.88;99002.50;5002986;28;19933;-66
2023/02/03 04:43:10;;;;;;;;;;;;;;;-0.95;85.21;99000.63;5010248;28;19929;-65
2023/02/03 04:45:36;;;;;;;;;;;;;;;-0.93;85.40;99006.59;4974370;28;20285;-65
2023/02/03 04:48:05;;;;;;;;;;;;;;;-0.87;85.33;99002.22;4998310;28;20136;-64
2023/02/03 04:50:31;;;;;;;;;;;;;;;-0.86;85.12;99004.72;4983626;28;20165;-64
2023/02/03 04:53:00;;;;;;;;;;;;;;;-0.86;85.09;98998.50;5001738;28;20320;-65
2023/02/03 04:55:26;;;;;;;;;;;;;;;-0.91;85.41;99001.03;5008506;28;20032;-64
2023/02/03 04:57:54;;;;;;;;;;;;;;;-0.89;85.50;99005.13;4977622;28;19929;-65
2023/02/03 05:00:20;;;;;;;;;;;;;;;-0.80;85.45;98994.94;5001109;28;19936;-64
2023/02/03 05:02:45;;;;;;;;;;;;;;;-0.76;85.03;99008.75;5009021;28;19929;-66
2023/02/03 05:05:13;;;;;;;;;;;;;;;-0.80;85.24;99002.19;5005069;28;19933;-65
2023/02/03 05:07:38;;;;;;;;;;;;;;;-0.81;85.05;99000.53;4987312;28;19936;-65
2023/02/03 05:10:05;;;;;;;;;;;;;;;-0.78;85.18;99000.09;4969682;28;20032;-65
2023/02/03 05:12:30;;;;;;;;;;;;;;;-0.74;85.10;99010.19;4969984;28;20029;-65
2023/02/03 05:14:56;;;;;;;;;;;;;;;-0.71;85.05;98998.16;4972036;28;20023;-65
2023/02/03 05:17:22;;;;;;;;;;;;;;;-0.68;85.00;99002.28;5005457;28;19960;-65
2023/02/03 05:19:48;;;;;;;;;;;;;;;-0.72;85.08;99004.56;5007398;28;20408;-65
2023/02/03 05:22:15;;;;;;;;;;;;;;;-0.74;85.04;99004.81;4975114;28;19933;-66
2023/02/03 05:24:40;;;;;;;;;;;;;;;-0.73;85.31;99003.75;5005976;28;20388;-66
2023/02/03 05:27:06;;;;;;;;;;;;;;;-0.67;85.08;99001.22;5008894;28;19945;-66
2023/02/03 05:29:32;;;;;;;;;;;;;;;-0.60;85.05;99004.69;4991431;28;20867;-65
2023/02/03 05:31:58;;;;;;;;;;;;;;;-0.58;84.72;99003.41;4992374;28;19967;-65
2023/02/03 05:34:23;;;;;;;;;;;;;;;-0.57;84.78;98999.69;4988310;28;19929;-65
2023/02/03 05:36:49;;;;;;;;;;;;;;;-0.57;84.78;99001.56;5000704;28;19929;-66
2023/02/03 05:39:16;;;;;;;;;;;;;;;-0.54;84.69;98997.63;4998413;28;20039;-64
2023/02/03 05:41:51;;;;;;;;;;;;;;;-0.53;84.74;98996.56;4983728;28;20029;-65
2023/02/03 05:44:17;;;;;;;;;;;;;;;-0.49;84.81;99003.13;5004553;28;20401;-64
2023/02/03 05:46:42;;;;;;;;;;;;;;;-0.48;84.61;98996.72;5003736;28;19929;-64
2023/02/03 05:49:08;;;;;;;;;;;;;;;-0.52;84.63;99006.28;4999664;28;19941;-65
2023/02/03 05:51:34;;;;;;;;;;;;;;;-0.52;84.71;99007.06;4979806;28;19984;-64
2023/02/03 05:54:03;;;;;;;;;;;;;;;-0.51;84.57;99015.97;4991987;28;21260;-64
2023/02/03 05:56:30;;;;;;;;;;;;;;;-0.48;84.95;99010.94;4988506;28;19984;-65
2023/02/03 05:58:56;;;;;;;;;;;;;;;-0.48;84.79;99012.84;4986435;28;19949;-64
2023/02/03 06:01:21;;;;;;;;;;;;;;;-0.48;84.80;99012.84;5004281;28;20407;-64
2023/02/03 06:03:48;;;;;;;;;;;;;;;-0.44;84.81;99012.19;4998550;28;19952;-64
2023/02/03 06:06:14;;;;;;;;;;;;;;;-0.40;84.80;99012.53;4985339;28;19969;-64
2023/02/03 06:08:40;;;;;;;;;;;;;;;-0.35;84.87;99007.34;4995883;28;19933;-64
2023/02/03 06:11:06;;;;;;;;;;;;;;;-0.30;84.79;99017.41;5006959;28;20028;-65
2023/02/03 06:13:33;;;;;;;;;;;;;;;-0.26;84.51;99015.91;5008407;28;19933;-65
2023/02/03 06:15:59;;;;;;;;;;;;;;;-0.24;84.34;99004.94;4998582;28;19937;-64
2023/02/03 06:18:24;;;;;;;;;;;;;;;-0.30;84.24;99017.41;5006893;28;20447;-64
2023/02/03 06:20:50;;;;;;;;;;;;;;;-0.30;84.33;99014.72;5007408;28;20032;-65
2023/02/03 06:23:17;;;;;;;;;;;;;;;-0.30;84.26;99009.38;5004458;28;19984;-65
2023/02/03 06:25:43;;;;;;;;;;;;;;;-0.31;84.39;99016.59;4995998;28;20020;-64
2023/02/03 06:28:09;;;;;;;;;;;;;;;-0.24;84.35;99021.88;4971702;28;20036;-64
2023/02/03 06:30:36;;;;;;;;;;;;;;;-0.28;84.15;99018.00;4989372;28;19933;-64
2023/02/03 06:33:02;;;;;;;;;;;;;;;-0.31;84.26;99019.28;4996795;28;19960;-65
2023/02/03 06:35:27;;;;;;;;;;;;;;;-0.25;84.18;99024.78;5006580;28;19930;-64
2023/02/03 06:37:53;;;;;;;;;;;;;;;-0.19;84.35;99008.59;5000241;28;19995;-64
2023/02/03 06:40:19;;;;;;;;;;;;;;;-0.16;84.17;99018.09;5009740;28;20307;-64
2023/02/03 06:42:45;;;;;;;;;;;;;;;-0.21;84.13;99013.38;4991529;28;19940;-64
2023/02/03 06:45:11;;;;;;;;;;;;;;;-0.12;84.29;99007.72;5010943;28;19952;-65
2023/02/03 06:47:40;;;;;;;;;;;;;;;-0.07;83.87;99015.94;4999447;28;19930;-64
2023/02/03 06:50:06;;;;;;;;;;;;;;;-0.03;83.66;99015.25;4979132;28;20028;-65
2023/02/03 06:52:32;;;;;;;;;;;;;;;0.04;83.71;99004.44;4991072;28;19936;-65
2023/02/03 06:54:57;;;;;;;;;;;;;;;0.05;83.60;99019.50;4990170;28;19929;-65
2023/02/03 06:57:23;;;;;;;;;;;;;;;0.04;83.31;99022.41;5010698;28;19930;-64
2023/02/03 06:59:49;;;;;;;;;;;;;;;0.00;83.36;99024.75;5007707;28;19984;-65
2023/02/03 07:02:14;;;;;;;;;;;;;;;-0.03;83.37;99020.63;4974216;28;19930;-65
2023/02/03 07:04:43;;;;;;;;;;;;;;;-0.06;83.75;99026.47;5008140;28;19929;-66
2023/02/03 07:07:09;;;;;;;;;;;;;;;-0.03;83.64;99017.09;5008561;28;19930;-66
2023/02/03 07:09:35;;;;;;;;;;;;;;;0.00;83.70;99016.69;4991377;28;20359;-65
2023/02/03 07:12:01;;;;;;;;;;;;;;;0.07;83.41;99014.72;4989732;28;19930;-65
2023/02/03 07:14:26;;;;;;;;;;;;;;;0.11;83.42;99015.91;5007185;28;19929;-65
2023/02/03 07:16:53;;;;;;;;;;;;;;;0.16;83.24;99017.09;4979700;28;19960;-65
2023/02/03 07:19:18;;;;;;;;;;;;;;;0.26;82.92;99020.09;4995796;28;19945;-64
2023/02/03 07:21:46;;;;;;;;;;;;;;;0.22;82.71;99019.69;5002329;28;19929;-65
2023/02/03 07:24:11;;;;;;;;;;;;;;;0.14;82.92;99017.34;5001397;28;20297;-65
2023/02/03 07:26:38;;;;;;;;;;;;;;;0.18;82.93;99018.53;5008431;28;19933;-64
2023/02/03 07:29:04;;;;;;;;;;;;;;;0.25;82.91;99023.81;4975566;28;19929;-65
2023/02/03 07:31:30;;;;;;;;;;;;;;;0.33;82.74;99022.69;4988764;28;19937;-65
2023/02/03 07:33:55;;;;;;;;;;;;;;;0.30;82.47;99018.56;5000278;28;19929;-65
2023/02/03 07:36:21;;;;;;;;;;;;;;;0.24;82.72;99019.50;4955510;28;19953;-65
2023/02/03 07:38:48;;;;;;;;;;;;;;;0.25;82.94;99024.66;4983323;28;19992;-64
2023/02/03 07:41:14;;;;;;;;;;;;;;;0.26;82.83;99026.28;5006824;28;19960;-65
2023/02/03 07:43:40;;;;;;;;;;;;;;;0.14;82.80;99011.97;5006071;28;20391;-65
2023/02/03 07:46:06;;;;;;;;;;;;;;;0.12;83.21;99008.69;4978954;28;20397;-65
2023/02/03 07:48:32;;;;;;;;;;;;;;;0.13;83.35;99018.38;4988867;28;20400;-65
2023/02/03 07:50:57;;;;;;;;;;;;;;;0.13;83.31;99002.25;4988316;28;20044;-65
2023/02/03 07:53:23;;;;;;;;;;;;;;;0.09;83.31;99009.13;4991235;28;19937;-65
2023/02/03 07:55:50;;;;;;;;;;;;;;;0.09;83.48;99011.81;4999023;28;19936;-65
2023/02/03 07:58:16;;;;;;;;;;;;;;;0.16;83.29;99004.50;4986128;28;19930;-65
2023/02/03 08:00:42;;;;;;;;;;;;;;;0.22;82.88;99008.16;4988231;28;19929;-65
2023/02/03 08:03:07;;;;;;;;;;;;;;;0.21;82.97;99015.38;5004321;28;20028;-65
2023/02/03 08:05:33;;;;;;;;;;;;;;;0.14;83.11;99014.66;4990109;28;19929;-65
2023/02/03 08:07:59;;;;;;;;;;;;;;;0.16;83.23;99014.41;4987710;28;19929;-65
2023/02/03 08:10:25;;;;;;;;;;;;;;;0.14;83.13;99018.16;4978765;28;20083;-65
2023/02/03 08:12:53;;;;;;;;;;;;;;;0.13;83.11;99011.13;4991045;28;19929;-65
2023/02/03 08:15:19;;;;;;;;;;;;;;;0.18;83.19;99012.34;5005502;28;19992;-65
2023/02/03 08:17:45;;;;;;;;;;;;;;;0.26;83.08;99006.63;4999737;28;20411;-65
2023/02/03 08:20:11;;;;;;;;;;;;;;;0.36;82.68;99006.09;4986206;28;19957;-65
2023/02/03 08:22:37;;;;;;;;;;;;;;;0.38;82.43;99004.00;4962471;28;20375;-65
2023/02/03 08:25:03;;;;;;;;;;;;;;;0.39;82.10;98997.56;4988019;28;20469;-65
2023/02/03 08:27:30;;;;;;;;;;;;;;;0.41;82.22;99007.06;4987755;28;19933;-65
2023/02/03 08:29:57;;;;;;;;;;;;;;;0.41;81.94;99007.06;4998478;28;19938;-65
2023/02/03 08:32:23;;;;;;;;;;;;;;;0.35;81.85;99002.59;4996748;28;19940;-65
2023/02/03 08:34:50;;;;;;;;;;;;;;;0.41;82.31;98995.50;4997847;28;19952;-64
2023/02/03 08:37:16;;;;;;;;;;;;;;;0.48;81.95;99000.78;4989036;28;19929;-65
2023/02/03 08:39:42;;;;;;;;;;;;;;;0.55;81.87;99004.19;4984015;28;20603;-65
2023/02/03 08:42:09;;;;;;;;;;;;;;;0.64;81.75;98988.53;4994417;28;19937;-65
2023/02/03 08:44:34;;;;;;;;;;;;;;;0.73;81.32;98992.56;5007796;28;19948;-64
2023/02/03 08:47:01;;;;;;;;;;;;;;;0.78;80.89;98989.16;5005728;28;20028;-65
2023/02/03 08:49:28;;;;;;;;;;;;;;;0.78;80.71;98991.84;5003625;28;19984;-65
2023/02/03 08:51:55;;;;;;;;;;;;;;;0.81;81.01;98994.91;4985344;28;19957;-64
2023/02/03 08:54:20;;;;;;;;;;;;;;;0.75;80.82;98993.16;4988770;28;19929;-66
2023/02/03 08:56:46;;;;;;;;;;;;;;;0.70;81.04;98993.84;4989022;28;19937;-64
2023/02/03 08:59:13;;;;;;;;;;;;;;;0.61;81.22;98989.00;5002823;28;19929;-64
2023/02/03 09:01:47;;;;;;;;;;;;;;;0.59;81.66;98991.13;4987795;28;20282;-65
2023/02/03 09:04:18;;;;;;;;;;;;;;;0.62;82.16;98988.75;4989814;28;19996;-65
2023/02/03 09:06:44;;;;;;;;;;;;;;;0.75;82.42;98987.75;4973335;28;20298;-65
2023/02/03 09:09:09;;;;;;;;;;;;;;;0.69;82.34;98992.19;5003931;28;19936;-69
2023/02/03 09:11:35;;;;;;;;;;;;;;;0.66;82.43;98995.34;4988041;28;19934;-65
2023/02/03 09:14:01;;;;;;;;;;;;;;;0.69;82.61;98985.97;5005603;28;19929;-65
2023/02/03 09:16:27;;;;;;;;;;;;;;;0.73;82.83;98992.56;5008180;28;19938;-65
2023/02/03 09:18:52;;;;;;;;;;;;;;;0.76;82.46;98991.25;4983571;28;19930;-64
2023/02/03 09:21:20;;;;;;;;;;;;;;;0.73;82.54;98986.34;4984370;28;20395;-64
2023/02/03 09:23:45;;;;;;;;;;;;;;;0.74;82.34;98979.91;4954897;28;20025;-66
2023/02/03 09:26:13;;;;;;;;;;;;;;;0.68;82.51;98982.47;4995589;28;20411;-65
2023/02/03 09:28:39;;;;;;;;;;;;;;;0.61;82.41;98981.75;5002243;28;20313;-64
2023/02/03 09:31:05;;;;;;;;;;;;;;;0.58;82.47;98989.47;4972439;28;19936;-65
2023/02/03 09:33:31;;;;;;;;;;;;;;;0.53;82.56;98987.47;4961375;28;19934;-64
2023/02/03 09:35:57;;;;;;;;;;;;;;;0.53;82.61;98982.09;5009876;28;19929;-65
2023/02/03 09:38:24;;;;;;;;;;;;;;;0.58;82.74;98992.16;4991934;28;19936;-65
2023/02/03 09:40:52;;;;;;;;;;;;;;;0.64;83.12;98977.78;4991644;28;19933;-65
2023/02/03 09:43:30;;;;;;;;;;;;;;;0.77;82.68;98987.50;5008782;28;19969;-65
2023/02/03 09:45:59;;;;;;;;;;;;;;;0.93;82.24;98973.38;5007190;28;20459;-64
2023/02/03 09:48:29;;;;;;;;;;;;;;;1.05;81.55;98980.66;5012865;28;19929;-64
2023/02/03 09:50:55;;;;;;;;;;;;;;;1.09;81.25;98973.75;4986660;28;19930;-66
2023/02/03 09:53:26;;;;;;;;;;;;;;;1.01;80.83;98980.31;4990119;28;19930;-64
2023/02/03 09:55:52;;;;;;;;;;;;;;;1.05;81.24;98978.81;4988135;28;19930;-65
2023/02/03 09:58:22;;;;;;;;;;;;;;;1.06;80.71;98983.16;4999939;28;20040;-65
2023/02/03 10:00:49;;;;;;;;;;;;;;;1.06;81.05;98988.53;5004530;28;20032;-65
2023/02/03 10:03:20;;;;;;;;;;;;;;;1.04;80.89;98979.88;4990513;28;20059;-65
2023/02/03 10:05:51;;;;;;;;;;;;;;;0.98;80.63;98970.00;4961449;28;19955;-64
2023/02/03 10:08:22;;;;;;;;;;;;;;;0.92;80.92;98981.72;5010244;28;19929;-65
2023/02/03 10:11:08;;;;;;;;;;;;;;;0.85;81.07;98979.13;4989904;28;19976;-64
2023/02/03 10:13:38;;;;;;;;;;;;;;;0.92;81.28;98981.72;4965017;28;19929;-64
2023/02/03 10:16:16;;;;;;;;;;;;;;;1.02;81.04;98970.38;4991569;28;20014;-64
2023/02/03 10:18:45;;;;;;;;;;;;;;;1.11;80.69;98975.19;5008887;28;19936;-65
2023/02/03 10:21:13;;;;;;;;;;;;;;;1.08;80.49;98986.41;5009007;28;19937;-64
2023/02/03 10:23:40;;;;;;;;;;;;;;;1.04;80.58;98984.41;5008224;28;20323;-64
2023/02/03 10:26:09;;;;;;;;;;;;;;;0.99;80.67;98979.72;5009373;28;19933;-64
2023/02/03 10:28:38;;;;;;;;;;;;;;;0.99;80.66;98980.56;4976230;28;19930;-64
2023/02/03 10:31:08;;;;;;;;;;;;;;;0.96;80.97;98975.63;4989501;28;20400;-64
2023/02/03 10:33:34;;;;;;;;;;;;;;;0.88;81.21;98973.28;4995892;28;20181;-64
2023/02/03 10:36:03;;;;;;;;;;;;;;;0.82;81.38;98972.31;4989390;28;19929;-65
2023/02/03 10:38:37;;;;;;;;;;;;;;;0.80;81.61;98965.56;5000339;28;19929;-65
2023/02/03 10:41:03;;;;;;;;;;;;;;;0.87;81.65;98977.00;4991629;28;19968;-64
2023/02/03 10:43:46;;;;;;;;;;;;;;;0.93;81.50;98964.50;5002076;28;19961;-64
2023/02/03 10:46:12;;;;;;;;;;;;;;;0.89;81.07;98960.66;4997913;28;20399;-65
2023/02/03 10:48:38;;;;;;;;;;;;;;;0.87;81.25;98960.06;5011471;28;19934;-65
2023/02/03 10:51:10;;;;;;;;;;;;;;;0.84;81.29;98972.09;5007072;28;20388;-64
2023/02/03 10:53:36;;;;;;;;;;;;;;;0.87;81.17;98966.25;5006357;28;19930;-64
2023/02/03 10:56:03;;;;;;;;;;;;;;;0.85;81.14;98963.78;4971617;28;20439;-66
2023/02/03 10:58:32;;;;;;;;;;;;;;;0.87;80.92;98966.25;4989179;28;20344;-65
2023/02/03 11:01:04;;;;;;;;;;;;;;;0.80;80.87;98963.66;4988152;28;19934;-64
2023/02/03 11:03:30;;;;;;;;;;;;;;;0.81;81.15;98976.06;4987929;28;20401;-65
2023/02/03 11:06:07;;;;;;;;;;;;;;;0.88;80.65;98965.19;4985300;28;19937;-65
2023/02/03 11:08:34;;;;;;;;;;;;;;;0.96;80.60;98958.66;4989803;28;19980;-65
2023/02/03 11:11:04;;;;;;;;;;;;;;;1.07;80.23;98955.16;4983101;28;19980;-64
2023/02/03 11:13:31;;;;;;;;;;;;;;;1.09;79.46;98963.00;4991566;28;19929;-64
2023/02/03 11:15:59;;;;;;;;;;;;;;;1.15;79.63;98966.63;4985371;28;19929;-65
2023/02/03 11:18:36;;;;;;;;;;;;;;;1.22;79.15;98949.31;5003750;28;19976;-65
2023/02/03 11:21:05;;;;;;;;;;;;;;;1.24;78.58;98952.56;5006973;28;20325;-65
2023/02/03 11:23:31;;;;;;;;;;;;;;;1.25;78.64;98954.25;5008834;28;19965;-65
2023/02/03 11:25:57;;;;;;;;;;;;;;;1.28;78.15;98958.31;5001895;28;19968;-65
2023/02/03 11:28:26;;;;;;;;;;;;;;;1.33;78.03;98963.00;4990665;28;19984;-64
2023/02/03 11:30:57;;;;;;;;;;;;;;;1.34;77.73;98957.41;4987512;28;19933;-64
2023/02/03 11:33:25;;;;;;;;;;;;;;;1.39;77.80;98948.59;4973240;28;19930;-66
2023/02/03 11:35:53;;;;;;;;;;;;;;;1.56;77.64;98951.41;4990275;28;20032;-66
2023/02/03 11:38:28;;;;;;;;;;;;;;;1.69;77.37;98950.31;4988543;28;19968;-66
2023/02/03 11:40:58;;;;;;;;;;;;;;;1.72;77.01;98952.56;5007846;28;20421;-66
2023/02/03 11:43:23;;;;;;;;;;;;;;;1.73;76.51;98954.22;4989723;28;19929;-65
2023/02/03 11:45:51;;;;;;;;;;;;;;;1.66;75.64;98948.94;5009895;28;19945;-65
2023/02/03 11:48:25;;;;;;;;;;;;;;;1.63;75.90;98948.59;4995713;28;20344;-67
2023/02/03 11:50:57;;;;;;;;;;;;;;;1.70;75.80;98947.41;5001011;28;19929;-66
2023/02/03 11:53:28;;;;;;;;;;;;;;;1.67;75.57;98947.88;5006792;28;19929;-66
2023/02/03 11:56:02;;;;;;;;;;;;;;;1.67;75.49;98947.03;4989254;28;19937;-66
2023/02/03 11:58:47;;;;;;;;;;;;;;;1.74;75.19;98946.91;4997308;28;20388;-66
2023/02/03 12:01:16;;;;;;;;;;;;;;;1.82;74.83;98946.56;4968949;28;19936;-66
2023/02/03 12:04:00;;;;;;;;;;;;;;;1.88;74.46;98942.09;4987675;28;19937;-66
2023/02/03 12:06:34;;;;;;;;;;;;;;;1.82;74.20;98946.56;4998354;28;20035;-66
2023/02/03 12:09:07;;;;;;;;;;;;;;;1.75;74.05;98940.47;4985420;28;19975;-66
2023/02/03 12:11:41;;;;;;;;;;;;;;;1.69;73.82;98939.53;4984650;28;19930;-66
2023/02/03 12:14:14;;;;;;;;;;;;;;;1.63;73.52;98941.31;4980911;28;19956;-66
2023/02/03 12:16:54;;;;;;;;;;;;;;;1.65;73.78;98936.53;5007796;28;20017;-66
2023/02/03 12:19:25;;;;;;;;;;;;;;;1.65;73.90;98938.38;5001198;28;20456;-66
2023/02/03 12:21:56;;;;;;;;;;;;;;;1.62;73.62;98936.97;4997708;28;20400;-66
2023/02/03 12:24:26;;;;;;;;;;;;;;;1.62;73.27;98931.59;4990592;28;19936;-66
2023/02/03 12:26:55;;;;;;;;;;;;;;;1.63;73.45;98944.00;5008699;28;19929;-66
2023/02/03 12:29:24;;;;;;;;;;;;;;;1.64;73.07;98936.75;5006407;28;20300;-66
2023/02/03 12:31:53;;;;;;;;;;;;;;;1.69;73.14;98937.69;5004813;28;19936;-66
2023/02/03 12:34:22;;;;;;;;;;;;;;;1.62;72.66;98936.97;4985581;28;19944;-66
2023/02/03 12:36:52;;;;;;;;;;;;;;;1.58;72.45;98929.63;4996081;28;19931;-66
2023/02/03 12:39:20;;;;;;;;;;;;;;;1.50;72.49;98941.59;5005368;28;19929;-66
2023/02/03 12:41:49;;;;;;;;;;;;;;;1.45;72.58;98930.69;4988465;28;20410;-66
2023/02/03 12:44:16;;;;;;;;;;;;;;;1.44;72.30;98931.72;4989682;28;20409;-66
2023/02/03 12:46:44;;;;;;;;;;;;;;;1.40;72.27;98928.69;4981839;28;19929;-66
2023/02/03 12:49:13;;;;;;;;;;;;;;;1.37;72.69;98938.06;5008919;28;19940;-66
2023/02/03 12:51:41;;;;;;;;;;;;;;;1.44;73.00;98934.44;5005100;28;19935;-66
2023/02/03 12:54:12;;;;;;;;;;;;;;;1.49;72.87;98935.34;5005442;28;20424;-65